METAR Data
IDs: Format: Raw Decoded Include TAF

Data at: 1434 UTC 21 Apr 2021

METAR for:KAMW (Ames Muni, IA, US)
Text:KAMW 211353Z AUTO 34012G21KT 10SM BKN047 02/M07 A3020 RMK AO2 SLP233 T00221072
Temperature: 2.2°C ( 36°F)
Dewpoint: -7.2°C ( 19°F) [RH = 50%]
Pressure (altimeter):30.20 inches Hg (1022.8 mb) [Sea level pressure: 1023.3 mb]
Winds:from the NNW (340 degrees) at 14 MPH (12 knots; 6.2 m/s) gusting to 24 MPH (21 knots; 10.8 m/s)
Visibility:10 or more sm (16+ km)
Ceiling:4700 feet AGL
Clouds: broken clouds at 4700 feet AGL
QC Flag:automated observation with no human augmentation